Time,TemperatureF,DewpointF,PressureIn,WindDirection,WindDirectionDegrees,WindSpeedMPH,WindSpeedGustMPH,Humidity,HourlyPrecipIn,Conditions,Clouds,dailyrainin,SoftwareType,DateUTC
2013-02-28 00:05:00,38.5,9.0,30.26,ESE,103,0.0,-999.0,30,-99.99,,,0.00,weatherlink.com 1.10,2013-02-28 08:05:00,
2013-02-28 00:20:00,39.1,8.0,30.25,ESE,116,0.0,-999.0,27,-99.99,,,0.00,weatherlink.com 1.10,2013-02-28 08:20:00,
2013-02-28 00:35:00,38.7,9.0,30.25,ESE,113,0.0,-999.0,29,-99.99,,,0.00,weatherlink.com 1.10,2013-02-28 08:35:00,
2013-02-28 00:50:00,38.7,10.0,30.25,South,175,1.0,-999.0,30,-99.99,,,0.00,weatherlink.com 1.10,2013-02-28 08:50:00,
2013-02-28 01:06:00,38.4,10.0,30.27,East,89,3.0,-999.0,31,-99.99,,,0.00,weatherlink.com 1.10,2013-02-28 09:06:00,
2013-02-28 01:20:00,38.1,11.0,30.27,North,4,0.0,-999.0,32,-99.99,,,0.00,weatherlink.com 1.10,2013-02-28 09:20:00,
2013-02-28 01:35:00,37.9,12.0,30.26,ENE,73,0.0,-999.0,34,-99.99,,,0.00,weatherlink.com 1.10,2013-02-28 09:35:00,
2013-02-28 01:50:00,37.8,11.0,30.26,North,1,0.0,-999.0,33,-99.99,,,0.00,weatherlink.com 1.10,2013-02-28 09:50:00,
2013-02-28 02:05:00,37.1,13.0,30.26,South,184,0.0,-999.0,37,-99.99,,,0.00,weatherlink.com 1.10,2013-02-28 10:05:00,
2013-02-28 02:19:00,36.7,13.0,30.24,SSE,151,0.0,-999.0,38,-99.99,,,0.00,weatherlink.com 1.10,2013-02-28 10:19:00,
2013-02-28 02:34:00,36.9,13.0,30.23,South,188,0.0,-999.0,38,-99.99,,,0.00,weatherlink.com 1.10,2013-02-28 10:34:00,
2013-02-28 02:50:00,36.9,13.0,30.23,WSW,237,0.0,-999.0,38,-99.99,,,0.00,weatherlink.com 1.10,2013-02-28 10:50:00,
2013-02-28 03:04:00,37.1,14.0,30.23,NE,40,0.0,-999.0,39,-99.99,,,0.00,weatherlink.com 1.10,2013-02-28 11:04:00,
2013-02-28 03:19:00,35.8,16.0,30.24,North,3,0.0,-999.0,45,-99.99,,,0.00,weatherlink.com 1.10,2013-02-28 11:19:00,
2013-02-28 03:35:00,35.2,17.0,30.24,North,6,0.0,-999.0,47,-99.99,,,0.00,weatherlink.com 1.10,2013-02-28 11:35:00,
2013-02-28 03:49:00,35.0,16.0,30.24,ENE,75,0.0,-999.0,47,-99.99,,,0.00,weatherlink.com 1.10,2013-02-28 11:49:00,
2013-02-28 04:04:00,35.0,17.0,30.24,ENE,75,0.0,-999.0,48,-99.99,,,0.00,weatherlink.com 1.10,2013-02-28 12:04:00,
2013-02-28 04:19:00,35.3,17.0,30.25,ENE,75,0.0,-999.0,48,-99.99,,,0.00,weatherlink.com 1.10,2013-02-28 12:19:00,
2013-02-28 04:34:00,35.6,13.0,30.26,ENE,75,0.0,-999.0,39,-99.99,,,0.00,weatherlink.com 1.10,2013-02-28 12:34:00,
2013-02-28 04:49:00,36.5,10.0,30.25,ENE,76,0.0,-999.0,34,-99.99,,,0.00,weatherlink.com 1.10,2013-02-28 12:49:00,
2013-02-28 05:04:00,37.5,9.0,30.25,ESE,119,0.0,-999.0,31,-99.99,,,0.00,weatherlink.com 1.10,2013-02-28 13:04:00,
2013-02-28 05:35:00,36.2,10.0,30.31,ESE,123,0.0,-999.0,34,-99.99,,,0.00,weatherlink.com 1.10,2013-02-28 13:35:00,
2013-02-28 05:49:00,36.5,8.0,30.30,SE,134,0.0,-999.0,31,-99.99,,,0.00,weatherlink.com 1.10,2013-02-28 13:49:00,
2013-02-28 06:04:00,36.7,9.0,30.31,SE,134,0.0,-999.0,31,-99.99,,,0.00,weatherlink.com 1.10,2013-02-28 14:04:00,
2013-02-28 06:50:00,37.8,10.0,30.33,SE,134,0.0,-999.0,31,-99.99,,,0.00,weatherlink.com 1.10,2013-02-28 14:50:00,
2013-02-28 07:04:00,38.2,9.0,30.34,East,88,0.0,-999.0,30,-99.99,,,0.00,weatherlink.com 1.10,2013-02-28 15:04:00,
2013-02-28 07:34:00,40.8,14.0,30.34,East,82,0.0,-999.0,33,-99.99,,,0.00,weatherlink.com 1.10,2013-02-28 15:34:00,
2013-02-28 07:49:00,43.8,12.0,30.31,East,82,0.0,-999.0,28,-99.99,,,0.00,weatherlink.com 1.10,2013-02-28 15:49:00,
2013-02-28 08:04:00,45.8,13.0,30.31,East,82,0.0,-999.0,26,-99.99,,,0.00,weatherlink.com 1.10,2013-02-28 16:04:00,
2013-02-28 08:19:00,45.2,15.0,30.32,East,82,0.0,-999.0,29,-99.99,,,0.00,weatherlink.com 1.10,2013-02-28 16:19:00,
2013-02-28 09:05:00,45.8,17.0,30.33,East,82,0.0,-999.0,31,-99.99,,,0.00,weatherlink.com 1.10,2013-02-28 17:05:00,
2013-02-28 09:19:00,49.2,21.0,30.29,East,82,0.0,-999.0,33,-99.99,,,0.00,weatherlink.com 1.10,2013-02-28 17:19:00,
2013-02-28 09:34:00,48.0,19.0,30.31,South,178,0.0,-999.0,32,-99.99,,,0.00,weatherlink.com 1.10,2013-02-28 17:34:00,
2013-02-28 09:49:00,49.1,22.0,30.30,South,184,0.0,-999.0,34,-99.99,,,0.00,weatherlink.com 1.10,2013-02-28 17:49:00,
2013-02-28 10:04:00,49.4,22.0,30.30,SW,219,0.0,-999.0,34,-99.99,,,0.00,weatherlink.com 1.10,2013-02-28 18:04:00,
2013-02-28 10:19:00,49.8,21.0,30.30,SSW,212,0.0,-999.0,32,-99.99,,,0.00,weatherlink.com 1.10,2013-02-28 18:19:00,
2013-02-28 10:34:00,50.5,21.0,30.29,SSW,212,0.0,-999.0,31,-99.99,,,0.00,weatherlink.com 1.10,2013-02-28 18:34:00,
2013-02-28 10:49:00,50.1,23.0,30.30,West,260,2.0,-999.0,34,-99.99,,,0.00,weatherlink.com 1.10,2013-02-28 18:49:00,
2013-02-28 11:05:00,50.7,23.0,30.29,WNW,289,1.0,-999.0,34,-99.99,,,0.00,weatherlink.com 1.10,2013-02-28 19:05:00,
2013-02-28 11:19:00,50.5,23.0,30.31,WSW,250,0.0,-999.0,34,-99.99,,,0.00,weatherlink.com 1.10,2013-02-28 19:19:00,
2013-02-28 11:34:00,49.8,23.0,30.31,SW,222,4.0,-999.0,35,-99.99,,,0.00,weatherlink.com 1.10,2013-02-28 19:34:00,
2013-02-28 11:49:00,51.1,25.0,30.29,East,96,0.0,-999.0,37,-99.99,,,0.00,weatherlink.com 1.10,2013-02-28 19:49:00,
2013-02-28 12:04:00,52.9,26.0,30.28,SE,145,0.0,-999.0,35,-99.99,,,0.00,weatherlink.com 1.10,2013-02-28 20:04:00,
2013-02-28 12:19:00,53.7,24.0,30.26,East,92,0.0,-999.0,31,-99.99,,,0.00,weatherlink.com 1.10,2013-02-28 20:19:00,
2013-02-28 12:34:00,51.7,27.0,30.27,West,280,5.0,-999.0,38,-99.99,,,0.00,weatherlink.com 1.10,2013-02-28 20:34:00,
2013-02-28 12:49:00,51.4,29.0,30.27,WNW,289,1.0,-999.0,43,-99.99,,,0.00,weatherlink.com 1.10,2013-02-28 20:49:00,
2013-02-28 13:04:00,52.2,28.0,30.26,WNW,298,2.0,-999.0,39,-99.99,,,0.00,weatherlink.com 1.10,2013-02-28 21:04:00,
2013-02-28 13:20:00,51.1,27.0,30.27,WNW,284,2.0,-999.0,40,-99.99,,,0.00,weatherlink.com 1.10,2013-02-28 21:20:00,
2013-02-28 13:35:00,50.8,28.0,30.27,WNW,289,1.0,-999.0,41,-99.99,,,0.00,weatherlink.com 1.10,2013-02-28 21:35:00,
2013-02-28 13:50:00,51.0,30.0,30.27,WNW,291,0.0,-999.0,44,-99.99,,,0.00,weatherlink.com 1.10,2013-02-28 21:50:00,
2013-02-28 14:05:00,50.8,32.0,30.26,SSW,195,1.0,-999.0,49,-99.99,,,0.00,weatherlink.com 1.10,2013-02-28 22:05:00,
2013-02-28 14:20:00,51.1,31.0,30.27,WNW,284,1.0,-999.0,46,-99.99,,,0.00,weatherlink.com 1.10,2013-02-28 22:20:00,
2013-02-28 14:35:00,51.4,28.0,30.27,WNW,288,0.0,-999.0,41,-99.99,,,0.00,weatherlink.com 1.10,2013-02-28 22:35:00,
2013-02-28 14:50:00,51.9,23.0,30.26,West,263,3.0,-999.0,33,-99.99,,,0.00,weatherlink.com 1.10,2013-02-28 22:50:00,
2013-02-28 15:05:00,52.2,31.0,30.27,SW,224,0.0,-999.0,45,-99.99,,,0.00,weatherlink.com 1.10,2013-02-28 23:05:00,
2013-02-28 15:20:00,53.2,27.0,30.27,NW,304,1.0,-999.0,37,-99.99,,,0.00,weatherlink.com 1.10,2013-02-28 23:20:00,
2013-02-28 15:35:00,53.5,26.0,30.27,WNW,284,1.0,-999.0,35,-99.99,,,0.00,weatherlink.com 1.10,2013-02-28 23:35:00,
2013-02-28 15:50:00,53.2,26.0,30.27,WSW,237,3.0,-999.0,35,-99.99,,,0.00,weatherlink.com 1.10,2013-02-28 23:50:00,
2013-02-28 16:05:00,52.8,28.0,30.27,WNW,292,5.0,-999.0,39,-99.99,,,0.00,weatherlink.com 1.10,2013-03-01 00:05:00,
2013-02-28 16:20:00,51.9,30.0,30.26,WNW,292,3.0,-999.0,43,-99.99,,,0.00,weatherlink.com 1.10,2013-03-01 00:20:00,
2013-02-28 16:35:00,52.0,32.0,30.25,WNW,292,0.0,-999.0,46,-99.99,,,0.00,weatherlink.com 1.10,2013-03-01 00:35:00,
2013-02-28 16:50:00,51.4,30.0,30.27,WNW,292,0.0,-999.0,44,-99.99,,,0.00,weatherlink.com 1.10,2013-03-01 00:50:00,
2013-02-28 17:05:00,51.7,27.0,30.26,WNW,292,0.0,-999.0,38,-99.99,,,0.00,weatherlink.com 1.10,2013-03-01 01:05:00,
2013-02-28 17:20:00,51.9,24.0,30.28,WNW,292,0.0,-999.0,34,-99.99,,,0.00,weatherlink.com 1.10,2013-03-01 01:20:00,
2013-02-28 17:35:00,51.6,21.0,30.28,WNW,292,0.0,-999.0,30,-99.99,,,0.00,weatherlink.com 1.10,2013-03-01 01:35:00,
2013-02-28 17:50:00,48.0,27.0,30.30,WNW,292,0.0,-999.0,45,-99.99,,,0.00,weatherlink.com 1.10,2013-03-01 01:50:00,
2013-02-28 18:05:00,45.1,29.0,30.33,NNW,329,0.0,-999.0,54,-99.99,,,0.00,weatherlink.com 1.10,2013-03-01 02:05:00,
2013-02-28 18:20:00,43.5,28.0,30.33,NNW,329,0.0,-999.0,54,-99.99,,,0.00,weatherlink.com 1.10,2013-03-01 02:20:00,
2013-02-28 18:35:00,43.0,29.0,30.35,NNW,329,0.0,-999.0,59,-99.99,,,0.00,weatherlink.com 1.10,2013-03-01 02:35:00,
2013-02-28 18:50:00,42.7,29.0,30.35,NNW,329,0.0,-999.0,58,-99.99,,,0.00,weatherlink.com 1.10,2013-03-01 02:50:00,
2013-02-28 19:05:00,43.0,27.0,30.36,NNW,329,0.0,-999.0,54,-99.99,,,0.00,weatherlink.com 1.10,2013-03-01 03:05:00,
2013-02-28 19:20:00,43.0,27.0,30.30,NNW,329,0.0,-999.0,54,-99.99,,,0.00,weatherlink.com 1.10,2013-03-01 03:20:00,
2013-02-28 19:35:00,43.7,27.0,30.31,North,0,4.0,-999.0,53,-99.99,,,0.00,weatherlink.com 1.10,2013-03-01 03:35:00,
2013-02-28 19:50:00,43.7,28.0,30.30,North,359,0.0,-999.0,54,-99.99,,,0.00,weatherlink.com 1.10,2013-03-01 03:50:00,
2013-02-28 20:05:00,42.4,28.0,30.31,North,359,0.0,-999.0,57,-99.99,,,0.00,weatherlink.com 1.10,2013-03-01 04:05:00,
2013-02-28 20:20:00,41.7,27.0,30.32,North,10,0.0,-999.0,56,-99.99,,,0.00,weatherlink.com 1.10,2013-03-01 04:20:00,
2013-02-28 20:35:00,39.8,27.0,30.33,NNE,21,0.0,-999.0,61,-99.99,,,0.00,weatherlink.com 1.10,2013-03-01 04:35:00,
2013-02-28 20:50:00,40.0,26.0,30.34,North,0,7.0,-999.0,58,-99.99,,,0.00,weatherlink.com 1.10,2013-03-01 04:50:00,
2013-02-28 21:05:00,40.0,27.0,30.34,North,0,7.0,-999.0,59,-99.99,,,0.00,weatherlink.com 1.10,2013-03-01 05:05:00,
2013-02-28 21:20:00,39.5,26.0,30.33,North,3,1.0,-999.0,59,-99.99,,,0.00,weatherlink.com 1.10,2013-03-01 05:20:00,
2013-02-28 21:35:00,39.4,26.0,30.33,North,0,0.0,-999.0,59,-99.99,,,0.00,weatherlink.com 1.10,2013-03-01 05:35:00,
2013-02-28 21:50:00,38.5,26.0,30.33,North,0,0.0,-999.0,62,-99.99,,,0.00,weatherlink.com 1.10,2013-03-01 05:50:00,
2013-02-28 22:05:00,38.4,26.0,30.35,North,0,0.0,-999.0,62,-99.99,,,0.00,weatherlink.com 1.10,2013-03-01 06:05:00,
2013-02-28 22:20:00,43.2,22.0,30.30,North,0,0.0,-999.0,44,-99.99,,,0.00,weatherlink.com 1.10,2013-03-01 06:20:00,
2013-02-28 22:35:00,44.4,17.0,30.30,North,359,6.0,-999.0,34,-99.99,,,0.00,weatherlink.com 1.10,2013-03-01 06:35:00,
2013-02-28 22:50:00,44.1,14.0,30.30,NE,35,5.0,-999.0,30,-99.99,,,0.00,weatherlink.com 1.10,2013-03-01 06:50:00,
2013-02-28 23:05:00,43.7,15.0,30.30,North,359,6.0,-999.0,32,-99.99,,,0.00,weatherlink.com 1.10,2013-03-01 07:05:00,
2013-02-28 23:20:00,43.2,17.0,30.29,North,0,1.0,-999.0,35,-99.99,,,0.00,weatherlink.com 1.10,2013-03-01 07:20:00,
2013-02-28 23:35:00,42.0,19.0,30.30,North,0,2.0,-999.0,39,-99.99,,,0.00,weatherlink.com 1.10,2013-03-01 07:35:00,
2013-02-28 23:50:00,41.7,16.0,30.30,North,0,0.0,-999.0,35,-99.99,,,0.00,weatherlink.com 1.10,2013-03-01 07:50:00,